createdAt,value
2018-04-11T00:00:06.414Z,1002.26
2018-04-11T00:01:06.395Z,1002.23
2018-04-11T00:02:06.373Z,1002.31
2018-04-11T00:03:06.362Z,1002.31
2018-04-11T00:04:06.384Z,1002.29
2018-04-11T00:05:06.643Z,1002.36
2018-04-11T00:06:06.302Z,1002.34
2018-04-11T00:07:06.284Z,1002.34
2018-04-11T00:08:06.381Z,1002.30
2018-04-11T00:09:06.242Z,1002.32
2018-04-11T00:10:06.279Z,1002.28
2018-04-11T00:11:06.522Z,1002.31
2018-04-11T00:12:06.193Z,1002.32
2018-04-11T00:13:06.169Z,1002.36
2018-04-11T00:14:06.153Z,1002.42
2018-04-11T00:15:06.186Z,1002.35
2018-04-11T00:16:06.118Z,1002.35
2018-04-11T00:17:06.401Z,1002.35
2018-04-11T00:18:06.083Z,1002.37
2018-04-11T00:19:06.060Z,1002.38
2018-04-11T00:20:06.043Z,1002.37
2018-04-11T00:21:06.076Z,1002.34
2018-04-11T00:22:06.016Z,1002.35
2018-04-11T00:23:06.288Z,1002.32
2018-04-11T00:24:05.980Z,1002.31
2018-04-11T00:25:05.957Z,1002.35
2018-04-11T00:26:05.934Z,1002.37
2018-04-11T00:27:05.965Z,1002.33
2018-04-11T00:28:05.900Z,1002.40
2018-04-11T00:29:06.181Z,1002.38
2018-04-11T00:30:06.212Z,1002.34
2018-04-11T00:31:05.836Z,1002.35
2018-04-11T00:32:05.822Z,1002.36
2018-04-11T00:33:05.800Z,1002.34
2018-04-11T00:34:05.779Z,1002.33
2018-04-11T00:35:06.062Z,1002.40
2018-04-11T00:36:05.804Z,1002.32
2018-04-11T00:37:05.725Z,1002.27
2018-04-11T00:38:05.809Z,1002.32
2018-04-11T00:39:05.693Z,1002.30
2018-04-11T00:40:05.666Z,1002.30
2018-04-11T00:42:05.983Z,1002.32
2018-04-11T00:44:05.596Z,1002.31
2018-04-11T00:45:05.627Z,1002.27
2018-04-11T00:46:05.555Z,1002.33
2018-04-11T00:47:05.539Z,1002.30
2018-04-11T00:48:05.519Z,1002.29
2018-04-11T00:49:05.801Z,1002.26
2018-04-11T00:50:05.484Z,1002.30
2018-04-11T00:51:05.513Z,1002.28
2018-04-11T00:52:05.455Z,1002.35
2018-04-11T00:53:05.428Z,1002.35
2018-04-11T00:54:05.411Z,1002.36
2018-04-11T00:55:05.392Z,1002.36
2018-04-11T00:56:05.672Z,1002.39
2018-04-11T00:57:05.508Z,1002.40
2018-04-11T00:58:05.631Z,1002.37
2018-04-11T00:59:05.604Z,1002.32
2018-04-11T01:00:05.298Z,1002.37
2018-04-11T01:01:05.279Z,1002.37
2018-04-11T01:02:05.260Z,1002.36
2018-04-11T01:03:05.592Z,1002.35
2018-04-11T01:04:05.221Z,1002.34
2018-04-11T01:05:05.207Z,1002.32
2018-04-11T01:06:05.182Z,1002.31
2018-04-11T01:07:05.162Z,1002.35
2018-04-11T01:08:05.262Z,1002.35
2018-04-11T01:09:05.176Z,1002.39
2018-04-11T01:10:05.409Z,1002.38
2018-04-11T01:11:05.091Z,1002.41
2018-04-11T01:12:05.120Z,1002.38
2018-04-11T01:13:05.054Z,1002.45
2018-04-11T01:14:05.033Z,1002.42
2018-04-11T01:15:05.068Z,1002.44
2018-04-11T01:16:04.994Z,1002.42
2018-04-11T01:17:05.286Z,1002.44
2018-04-11T01:18:05.114Z,1002.39
2018-04-11T01:19:04.943Z,1002.43
2018-04-11T01:20:04.920Z,1002.43
2018-04-11T01:21:04.954Z,1002.40
2018-04-11T01:22:04.987Z,1002.34
2018-04-11T01:23:04.867Z,1002.32
2018-04-11T01:24:05.199Z,1002.31
2018-04-11T01:25:04.834Z,1002.28
2018-04-11T01:26:04.810Z,1002.29
2018-04-11T01:27:04.789Z,1002.26
2018-04-11T01:28:04.773Z,1002.23
2018-04-11T01:29:04.760Z,1002.26
2018-04-11T01:30:05.088Z,1002.34
2018-04-11T01:31:04.767Z,1002.33
2018-04-11T01:32:04.698Z,1002.27
2018-04-11T01:33:04.685Z,1002.24
2018-04-11T01:34:04.713Z,1002.28
2018-04-11T01:35:04.655Z,1002.26
2018-04-11T01:36:04.971Z,1002.21
2018-04-11T01:37:04.756Z,1002.27
2018-04-11T01:39:04.565Z,1002.28
2018-04-11T01:40:04.545Z,1002.31
2018-04-11T01:41:04.535Z,1002.33
2018-04-11T01:42:04.811Z,1002.27
2018-04-11T01:43:04.548Z,1002.32
2018-04-11T01:44:04.472Z,1002.33
2018-04-11T01:45:04.456Z,1002.34
2018-04-11T01:46:04.438Z,1002.35
2018-04-11T01:47:04.469Z,1002.35
2018-04-11T01:48:04.700Z,1002.31
2018-04-11T01:49:04.431Z,1002.32
2018-04-11T01:50:04.365Z,1002.34
2018-04-11T01:51:04.341Z,1002.43
2018-04-11T01:53:04.305Z,1002.37
2018-04-11T01:54:04.289Z,1002.38
2018-04-11T01:55:04.616Z,1002.35
2018-04-11T01:56:04.245Z,1002.37
2018-04-11T01:57:04.231Z,1002.38
2018-04-11T01:58:04.214Z,1002.37
2018-04-11T01:59:04.191Z,1002.35
2018-04-11T02:00:04.227Z,1002.37
2018-04-11T02:01:04.465Z,1002.33
2018-04-11T02:02:04.140Z,1002.34
2018-04-11T02:03:04.117Z,1002.38
2018-04-11T02:04:04.099Z,1002.37
2018-04-11T02:05:04.085Z,1002.34
2018-04-11T02:06:04.116Z,1002.27
2018-04-11T02:07:04.053Z,1002.36
2018-04-11T02:08:04.325Z,1002.39
2018-04-11T02:09:04.307Z,1002.42
2018-04-11T02:10:03.989Z,1002.43
2018-04-11T02:11:04.219Z,1002.42
2018-04-11T02:12:03.952Z,1002.42
2018-04-11T02:13:03.935Z,1002.44
2018-04-11T02:14:03.910Z,1002.47
2018-04-11T02:15:04.200Z,1002.46
2018-04-11T02:16:03.877Z,1002.45
2018-04-11T02:18:03.907Z,1002.45
2018-04-11T02:19:03.832Z,1002.46
2018-04-11T02:20:03.801Z,1002.51
2018-04-11T02:21:03.782Z,1002.51
2018-04-11T02:22:04.069Z,1002.56
2018-04-11T02:23:03.746Z,1002.58
2018-04-11T02:24:03.778Z,1002.61
2018-04-11T02:25:03.767Z,1002.54
2018-04-11T02:26:03.691Z,1002.54
2018-04-11T02:27:03.673Z,1002.47
2018-04-11T02:28:03.654Z,1002.49
2018-04-11T02:29:03.935Z,1002.53
2018-04-11T02:30:03.677Z,1002.57
2018-04-11T02:31:03.600Z,1002.59
2018-04-11T02:32:03.661Z,1002.62
2018-04-11T02:34:03.746Z,1002.71
2018-04-11T02:35:03.675Z,1002.66
2018-04-11T02:36:03.803Z,1002.62
2018-04-11T02:37:03.485Z,1002.68
2018-04-11T02:38:03.473Z,1002.73
2018-04-11T02:39:03.452Z,1002.67
2018-04-11T02:40:03.430Z,1002.70
2018-04-11T02:41:03.463Z,1002.64
2018-04-11T02:43:03.728Z,1002.60
2018-04-11T02:44:03.460Z,1002.61
2018-04-11T02:45:03.342Z,1002.63
2018-04-11T02:46:03.372Z,1002.63
2018-04-11T02:47:03.303Z,1002.67
2018-04-11T02:48:03.283Z,1002.65
2018-04-11T02:49:03.362Z,1002.64
2018-04-11T02:50:03.551Z,1002.65
2018-04-11T02:51:03.226Z,1002.60
2018-04-11T02:52:03.208Z,1002.65
2018-04-11T02:53:03.192Z,1002.65
2018-04-11T02:54:03.174Z,1002.69
2018-04-11T02:56:03.493Z,1002.67
2018-04-11T02:57:03.127Z,1002.66
2018-04-11T02:58:03.101Z,1002.69
2018-04-11T02:59:03.089Z,1002.70
2018-04-11T03:00:03.162Z,1002.74
2018-04-11T03:01:03.045Z,1002.74
2018-04-11T03:02:03.329Z,1002.72
2018-04-11T03:03:03.014Z,1002.69
2018-04-11T03:04:02.991Z,1002.72
2018-04-11T03:05:02.973Z,1002.70
2018-04-11T03:06:03.056Z,1002.70
2018-04-11T03:07:02.935Z,1002.71
2018-04-11T03:08:03.217Z,1002.71
2018-04-11T03:09:02.903Z,1002.69
2018-04-11T03:10:02.889Z,1002.69
2018-04-11T03:11:02.863Z,1002.67
2018-04-11T03:12:02.894Z,1002.70
2018-04-11T03:13:02.825Z,1002.71
2018-04-11T03:14:03.112Z,1002.69
2018-04-11T03:15:02.790Z,1002.70
2018-04-11T03:16:02.774Z,1002.70
2018-04-11T03:17:02.855Z,1002.69
2018-04-11T03:18:02.736Z,1002.68
2018-04-11T03:19:02.717Z,1002.76
2018-04-11T03:20:03.051Z,1002.73
2018-04-11T03:21:02.741Z,1002.70
2018-04-11T03:24:02.726Z,1002.71
2018-04-11T03:25:02.618Z,1002.65
2018-04-11T03:26:02.898Z,1002.61
2018-04-11T03:27:02.590Z,1002.63
2018-04-11T03:30:02.594Z,1002.54
2018-04-11T03:31:02.502Z,1002.54
2018-04-11T03:32:02.485Z,1002.52
2018-04-11T03:33:02.823Z,1002.51
2018-04-11T03:34:02.923Z,1002.49
2018-04-11T03:35:02.437Z,1002.52
2018-04-11T03:36:02.418Z,1002.50
2018-04-11T03:37:02.482Z,1002.53
2018-04-11T03:38:02.373Z,1002.52
2018-04-11T03:39:02.414Z,1002.52
2018-04-11T03:40:03.020Z,1002.56
2018-04-11T03:41:02.386Z,1002.57
2018-04-11T03:42:02.309Z,1002.55
2018-04-11T03:43:02.286Z,1002.57
2018-04-11T03:44:02.624Z,1002.60
2018-04-11T03:45:02.267Z,1002.61
2018-04-11T03:46:02.284Z,1002.63
2018-04-11T03:47:02.514Z,1002.66
2018-04-11T03:48:02.183Z,1002.66
2018-04-11T03:49:02.170Z,1002.65
2018-04-11T03:50:02.152Z,1002.64
2018-04-11T03:52:02.164Z,1002.66
2018-04-11T03:53:02.097Z,1002.67
2018-04-11T03:54:02.375Z,1002.64
2018-04-11T03:55:02.068Z,1002.60
2018-04-11T03:56:02.038Z,1002.60
2018-04-11T03:57:02.030Z,1002.55
2018-04-11T03:58:02.054Z,1002.56
2018-04-11T03:59:02.032Z,1002.53
2018-04-11T04:00:02.014Z,1002.58
2018-04-11T04:01:02.324Z,1002.64
2018-04-11T04:02:01.932Z,1002.64
2018-04-11T04:03:01.912Z,1002.69
2018-04-11T04:04:01.894Z,1002.71
2018-04-11T04:05:01.929Z,1002.68
2018-04-11T04:06:01.858Z,1002.70
2018-04-11T04:07:01.836Z,1002.68
2018-04-11T04:08:02.119Z,1002.72
2018-04-11T04:09:01.801Z,1002.78
2018-04-11T04:10:01.783Z,1002.75
2018-04-11T04:11:01.820Z,1002.79
2018-04-11T04:12:01.750Z,1002.76
2018-04-11T04:13:01.726Z,1002.76
2018-04-11T04:14:01.717Z,1002.75
2018-04-11T04:15:02.044Z,1002.80
2018-04-11T04:16:01.692Z,1002.77
2018-04-11T04:17:01.709Z,1002.74
2018-04-11T04:18:01.701Z,1002.71
2018-04-11T04:19:01.672Z,1002.71
2018-04-11T04:20:01.601Z,1002.72
2018-04-11T04:21:01.888Z,1002.71
2018-04-11T04:22:01.623Z,1002.74
2018-04-11T04:23:01.565Z,1002.71
2018-04-11T04:25:02.042Z,1002.78
2018-04-11T04:26:01.490Z,1002.76
2018-04-11T04:27:01.779Z,1002.78
2018-04-11T04:29:01.441Z,1002.78
2018-04-11T04:30:01.420Z,1002.78
2018-04-11T04:31:01.497Z,1002.77
2018-04-11T04:32:01.436Z,1002.81
2018-04-11T04:33:01.765Z,1002.83
2018-04-11T04:34:01.341Z,1002.85
2018-04-11T04:35:01.326Z,1002.85
2018-04-11T04:36:01.385Z,1002.85
2018-04-11T04:37:01.339Z,1002.85
2018-04-11T04:38:01.281Z,1002.84
2018-04-11T04:39:01.557Z,1002.84
2018-04-11T04:41:01.220Z,1002.87
2018-04-11T04:43:01.232Z,1002.96
2018-04-11T04:44:01.232Z,1002.92
2018-04-11T04:45:01.465Z,1002.94
2018-04-11T04:46:01.130Z,1003.03
2018-04-11T04:47:01.112Z,1003.01
2018-04-11T04:48:01.201Z,1002.99
2018-04-11T04:49:01.086Z,1002.99
2018-04-11T04:50:01.132Z,1003.01
2018-04-11T04:52:03.187Z,1002.96
2018-04-11T04:52:04.881Z,1002.94
2018-04-11T04:53:04.640Z,1002.96
2018-04-11T04:54:04.660Z,1002.97
2018-04-11T04:56:04.524Z,1002.98
2018-04-11T04:57:05.855Z,1003.07
2018-04-11T04:58:07.038Z,1003.07
2018-04-11T04:59:04.542Z,1003.07
2018-04-11T05:00:05.648Z,1003.11
2018-04-11T05:01:05.053Z,1003.11
2018-04-11T05:02:04.288Z,1003.13
2018-04-11T05:03:04.540Z,1003.05
2018-04-11T05:04:03.760Z,1003.11
2018-04-11T05:05:03.729Z,1003.09
2018-04-11T05:06:03.707Z,1003.05
2018-04-11T05:07:03.996Z,1003.07
2018-04-11T05:08:03.715Z,1003.10
2018-04-11T05:09:04.067Z,1003.09
2018-04-11T05:11:03.614Z,1003.09
2018-04-11T05:12:03.593Z,1003.16
2018-04-11T05:13:03.748Z,1003.13
2018-04-11T05:14:03.560Z,1003.17
2018-04-11T05:15:04.202Z,1003.18
2018-04-11T05:16:03.637Z,1003.14
2018-04-11T05:17:03.612Z,1003.20
2018-04-11T05:18:03.542Z,1003.17
2018-04-11T05:19:03.472Z,1003.17
2018-04-11T05:20:03.452Z,1003.25
2018-04-11T05:21:03.790Z,1003.29
2018-04-11T05:22:03.425Z,1003.25
2018-04-11T05:23:03.396Z,1003.18
2018-04-11T05:24:03.506Z,1003.20
2018-04-11T05:25:03.361Z,1003.26
2018-04-11T05:26:03.459Z,1003.31
2018-04-11T05:27:03.527Z,1003.36
2018-04-11T05:28:03.649Z,1003.26
2018-04-11T05:29:03.297Z,1003.30
2018-04-11T05:30:03.641Z,1003.28
2018-04-11T05:31:03.356Z,1003.30
2018-04-11T05:32:03.539Z,1003.29
2018-04-11T05:33:03.568Z,1003.29
2018-04-11T05:34:03.207Z,1003.29
2018-04-11T05:35:03.488Z,1003.29
2018-04-11T05:36:03.180Z,1003.30
2018-04-11T05:37:03.258Z,1003.28
2018-04-11T05:38:03.363Z,1003.31
2018-04-11T05:39:03.177Z,1003.27
2018-04-11T05:40:03.120Z,1003.28
2018-04-11T05:41:03.087Z,1003.30
2018-04-11T05:42:03.357Z,1003.35
2018-04-11T05:43:03.045Z,1003.48
2018-04-11T05:44:03.128Z,1003.59
2018-04-11T05:45:03.065Z,1003.54
2018-04-11T05:46:03.031Z,1003.53
2018-04-11T05:47:02.986Z,1003.51
2018-04-11T05:48:02.966Z,1003.48
2018-04-11T05:49:03.237Z,1003.53
2018-04-11T05:50:03.681Z,1003.55
2018-04-11T05:51:02.910Z,1003.46
2018-04-11T05:52:02.884Z,1003.38
2018-04-11T05:53:02.883Z,1003.43
2018-04-11T05:54:02.863Z,1003.51
2018-04-11T05:55:02.838Z,1003.52
2018-04-11T05:57:02.876Z,1003.55
2018-04-11T05:58:02.887Z,1003.58
2018-04-11T05:59:02.765Z,1003.62
2018-04-11T06:00:02.755Z,1003.61
2018-04-11T06:01:02.731Z,1003.57
2018-04-11T06:02:02.778Z,1003.54
2018-04-11T06:03:03.099Z,1003.56
2018-04-11T06:04:02.678Z,1003.61
2018-04-11T06:06:02.761Z,1003.59
2018-04-11T06:07:02.676Z,1003.56
2018-04-11T06:08:02.660Z,1003.57
2018-04-11T06:09:02.591Z,1003.59
2018-04-11T06:10:02.927Z,1003.55
2018-04-11T06:11:02.587Z,1003.56
2018-04-11T06:12:02.580Z,1003.56
2018-04-11T06:13:02.842Z,1003.54
2018-04-11T06:15:02.573Z,1003.58
2018-04-11T06:16:02.474Z,1003.57
2018-04-11T06:17:03.017Z,1003.65
2018-04-11T06:18:02.439Z,1003.69
2018-04-11T06:19:02.522Z,1003.73
2018-04-11T06:20:02.528Z,1003.79
2018-04-11T06:21:02.386Z,1003.78
2018-04-11T06:22:02.370Z,1003.76
2018-04-11T06:23:02.390Z,1003.76
2018-04-11T06:24:02.641Z,1003.78
2018-04-11T06:25:02.323Z,1003.77
2018-04-11T06:27:02.383Z,1003.78
2018-04-11T06:28:02.310Z,1003.78
2018-04-11T06:29:02.252Z,1003.79
2018-04-11T06:30:02.535Z,1003.81
2018-04-11T06:31:02.211Z,1003.85
2018-04-11T06:32:02.244Z,1003.87
2018-04-11T06:33:02.230Z,1003.85
2018-04-11T06:34:02.176Z,1003.84
2018-04-11T06:35:02.211Z,1003.88
2018-04-11T06:36:02.431Z,1003.85
2018-04-11T06:37:02.111Z,1003.84
2018-04-11T06:38:02.095Z,1003.88
2018-04-11T06:39:02.148Z,1003.82
2018-04-11T06:40:02.122Z,1003.86
2018-04-11T06:41:02.048Z,1003.89
2018-04-11T06:42:02.329Z,1003.87
2018-04-11T06:43:02.011Z,1003.89
2018-04-11T06:44:02.035Z,1003.90
2018-04-11T06:45:02.337Z,1003.86
2018-04-11T06:46:02.021Z,1003.90
2018-04-11T06:47:01.950Z,1003.93
2018-04-11T06:48:02.146Z,1003.95
2018-04-11T06:49:02.211Z,1003.99
2018-04-11T06:50:01.912Z,1004.01
2018-04-11T06:51:02.229Z,1004.04
2018-04-11T06:52:01.959Z,1004.00
2018-04-11T06:53:01.844Z,1003.99
2018-04-11T06:54:01.837Z,1003.98
2018-04-11T06:55:02.126Z,1003.94
2018-04-11T06:56:01.795Z,1003.95
2018-04-11T06:57:01.830Z,1003.96
2018-04-11T06:58:01.936Z,1004.01
2018-04-11T06:59:01.747Z,1004.05
2018-04-11T07:00:01.887Z,1004.09
2018-04-11T07:01:02.177Z,1004.11
2018-04-11T07:02:01.750Z,1004.14
2018-04-11T07:03:01.855Z,1004.09
2018-04-11T07:04:01.761Z,1004.17
2018-04-11T07:05:01.643Z,1004.14
2018-04-11T07:06:01.624Z,1004.12
2018-04-11T07:07:01.616Z,1004.10
2018-04-11T07:08:01.942Z,1004.13
2018-04-11T07:09:01.583Z,1004.14
2018-04-11T07:11:01.593Z,1004.11
2018-04-11T07:12:01.543Z,1004.16
2018-04-11T07:13:01.619Z,1004.18
2018-04-11T07:14:01.856Z,1004.14
2018-04-11T07:15:01.855Z,1004.20
2018-04-11T07:17:01.509Z,1004.18
2018-04-11T07:18:01.458Z,1004.20
2018-04-11T07:20:01.850Z,1004.21
2018-04-11T07:21:01.379Z,1004.22
2018-04-11T07:22:01.366Z,1004.22
2018-04-11T07:23:01.350Z,1004.24
2018-04-11T07:24:01.336Z,1004.29
2018-04-11T07:25:01.327Z,1004.25
2018-04-11T07:26:01.746Z,1004.24
2018-04-11T07:27:01.286Z,1004.25
2018-04-11T07:28:01.271Z,1004.28
2018-04-11T07:29:01.261Z,1004.29
2018-04-11T07:31:01.239Z,1004.25
2018-04-11T07:32:01.759Z,1004.29
2018-04-11T07:33:01.183Z,1004.29
2018-04-11T07:34:01.161Z,1004.30
2018-04-11T07:35:01.280Z,1004.30
2018-04-11T07:36:01.128Z,1004.31
2018-04-11T07:37:01.114Z,1004.31
2018-04-11T07:38:01.148Z,1004.34
2018-04-11T07:39:01.439Z,1004.35
2018-04-11T07:40:01.190Z,1004.33
2018-04-11T07:41:01.146Z,1004.35
2018-04-11T07:43:01.120Z,1004.32
2018-04-11T07:44:01.052Z,1004.40
2018-04-11T07:46:01.371Z,1004.37
2018-04-11T07:47:01.003Z,1004.34
2018-04-11T07:48:00.994Z,1004.29
2018-04-11T07:50:00.951Z,1004.23
2018-04-11T07:51:01.094Z,1004.21
2018-04-11T07:52:01.166Z,1004.24
2018-04-11T07:53:00.848Z,1004.22
2018-04-11T07:56:00.856Z,1004.17
2018-04-11T07:57:00.818Z,1004.17
2018-04-11T07:58:01.166Z,1004.20
2018-04-11T07:59:00.757Z,1004.18
2018-04-11T08:00:00.744Z,1004.18
2018-04-11T08:02:00.754Z,1004.22
2018-04-11T08:03:00.684Z,1004.19
2018-04-11T08:04:00.973Z,1004.30
2018-04-11T08:05:00.654Z,1004.31
2018-04-11T08:06:00.634Z,1004.32
2018-04-11T08:07:00.675Z,1004.35
2018-04-11T08:08:00.654Z,1004.34
2018-04-11T08:09:00.593Z,1004.30
2018-04-11T08:10:00.644Z,1004.29
2018-04-11T08:11:01.170Z,1004.35
2018-04-11T08:12:00.540Z,1004.36
2018-04-11T08:14:00.562Z,1004.47
2018-04-11T08:15:00.490Z,1004.55
2018-04-11T08:16:00.471Z,1004.50
2018-04-11T08:17:00.755Z,1004.49
2018-04-11T08:18:00.440Z,1004.51
2018-04-11T08:19:00.432Z,1004.53
2018-04-11T08:20:00.602Z,1004.55
2018-04-11T08:21:00.457Z,1004.56
2018-04-11T08:22:00.385Z,1004.55
2018-04-11T08:23:00.657Z,1004.53
2018-04-11T08:24:00.337Z,1004.57
2018-04-11T08:25:00.332Z,1004.50
2018-04-11T08:26:00.760Z,1004.41
2018-04-11T08:27:00.290Z,1004.43
2018-04-11T08:28:00.284Z,1004.54
2018-04-11T08:29:00.559Z,1004.49
2018-04-11T08:31:00.232Z,1004.50
2018-04-11T08:32:00.262Z,1004.44
2018-04-11T08:33:00.195Z,1004.40
2018-04-11T08:34:00.170Z,1004.34
2018-04-11T08:35:00.463Z,1004.37
2018-04-11T08:36:00.151Z,1004.39
2018-04-11T08:37:00.144Z,1004.40
2018-04-11T08:38:00.267Z,1004.43
2018-04-11T08:39:00.105Z,1004.45
2018-04-11T08:40:00.099Z,1004.46
2018-04-11T08:41:00.446Z,1004.48
2018-04-11T08:43:00.045Z,1004.45
2018-04-11T08:44:00.477Z,1004.48
2018-04-11T08:45:00.008Z,1004.50
2018-04-11T08:46:00.007Z,1004.49
2018-04-11T08:47:00.287Z,1004.46
2018-04-11T08:48:59.962Z,1004.47
2018-04-11T08:50:59.973Z,1004.48
2018-04-11T08:51:59.910Z,1004.58
2018-04-11T08:53:00.325Z,1004.60
2018-04-11T08:53:59.880Z,1004.58
2018-04-11T08:55:00.569Z,1004.57
2018-04-11T08:56:59.899Z,1004.56
2018-04-11T08:58:00.129Z,1004.44
2018-04-11T08:59:00.117Z,1004.47
2018-04-11T08:59:59.791Z,1004.40
2018-04-11T09:00:59.780Z,1004.38
2018-04-11T09:01:59.768Z,1004.43
2018-04-11T09:02:59.815Z,1004.42
2018-04-11T09:03:59.747Z,1004.42
2018-04-11T09:05:00.029Z,1004.39
2018-04-11T09:05:59.709Z,1004.44
2018-04-11T09:07:00.052Z,1004.43
2018-04-11T09:07:59.699Z,1004.48
2018-04-11T09:08:59.674Z,1004.48
2018-04-11T09:09:59.743Z,1004.48
2018-04-11T09:11:00.776Z,1004.52
2018-04-11T09:11:59.633Z,1004.52
2018-04-11T09:12:59.668Z,1004.51
2018-04-11T09:13:59.609Z,1004.51
2018-04-11T09:14:59.590Z,1004.56
2018-04-11T09:15:59.577Z,1004.75
2018-04-11T09:17:00.708Z,1004.80
2018-04-11T09:17:59.566Z,1004.72
2018-04-11T09:18:59.890Z,1004.72
2018-04-11T09:19:59.529Z,1004.70
2018-04-11T09:20:59.509Z,1004.60
2018-04-11T09:23:59.772Z,1004.47
2018-04-11T09:25:59.496Z,1004.47
2018-04-11T09:26:59.673Z,1004.48
2018-04-11T09:27:59.423Z,1004.43
2018-04-11T09:28:59.441Z,1004.43
2018-04-11T09:29:59.713Z,1004.48
2018-04-11T09:30:59.439Z,1004.46
2018-04-11T09:31:59.500Z,1004.45
2018-04-11T09:32:59.425Z,1004.46
2018-04-11T09:35:59.727Z,1004.48
2018-04-11T09:36:59.314Z,1004.74
2018-04-11T09:37:59.355Z,1005.12
2018-04-11T09:38:59.296Z,1004.71
2018-04-11T09:39:59.283Z,1004.82
2018-04-11T09:40:59.325Z,1005.56
2018-04-11T09:41:59.596Z,1005.51
2018-04-11T09:43:59.237Z,1005.37
2018-04-11T09:44:59.246Z,1005.26
2018-04-11T09:45:59.215Z,1005.34
2018-04-11T09:46:59.355Z,1005.39
2018-04-11T09:47:59.494Z,1005.32
2018-04-11T09:48:59.197Z,1005.21
2018-04-11T09:50:59.170Z,1005.26
2018-04-11T09:51:59.186Z,1004.99
2018-04-11T09:52:59.251Z,1005.05
2018-04-11T09:53:59.469Z,1004.78
2018-04-11T09:54:59.213Z,1004.80
2018-04-11T09:55:59.130Z,1004.76
2018-04-11T09:56:59.121Z,1005.20
2018-04-11T09:57:59.125Z,1004.90
2018-04-11T09:59:59.579Z,1005.11
2018-04-11T10:00:59.090Z,1005.05
2018-04-11T10:02:59.085Z,1005.01
2018-04-11T10:03:59.067Z,1004.98
2018-04-11T10:04:59.056Z,1004.96
2018-04-11T10:05:59.402Z,1005.02
2018-04-11T10:06:59.048Z,1005.09
2018-04-11T10:07:59.051Z,1005.11
2018-04-11T10:08:59.029Z,1004.98
2018-04-11T10:09:59.186Z,1005.00
2018-04-11T10:10:59.054Z,1005.01
2018-04-11T10:11:59.386Z,1005.06
2018-04-11T10:12:59.009Z,1005.00
2018-04-11T10:13:59.048Z,1004.90
2018-04-11T10:14:58.993Z,1004.88
2018-04-11T10:15:58.984Z,1005.01
2018-04-11T10:16:58.971Z,1005.11
2018-04-11T10:17:59.321Z,1005.05
2018-04-11T10:18:58.961Z,1004.98
2018-04-11T10:19:58.953Z,1005.03
2018-04-11T10:20:58.966Z,1005.04
2018-04-11T10:21:59.954Z,1004.94
2018-04-11T10:22:58.935Z,1005.01
2018-04-11T10:23:59.318Z,1004.74
2018-04-11T10:24:58.928Z,1004.95
2018-04-11T10:25:58.926Z,1004.96
2018-04-11T10:26:58.911Z,1004.95
2018-04-11T10:27:58.968Z,1004.96
2018-04-11T10:28:58.953Z,1005.03
2018-04-11T10:29:59.304Z,1004.97
2018-04-11T10:30:58.894Z,1004.81
2018-04-11T10:31:58.887Z,1004.88
2018-04-11T10:32:58.883Z,1004.73
2018-04-11T10:33:58.879Z,1004.57
2018-04-11T10:34:58.924Z,1004.84
2018-04-11T10:35:59.169Z,1004.80
2018-04-11T10:36:58.867Z,1004.54
2018-04-11T10:37:58.954Z,1004.66
2018-04-11T10:38:58.856Z,1004.67
2018-04-11T10:39:58.846Z,1004.67
2018-04-11T10:40:58.888Z,1004.44
2018-04-11T10:41:59.139Z,1004.74
2018-04-11T10:42:58.936Z,1004.81
2018-04-11T10:43:58.928Z,1004.71
2018-04-11T10:45:58.813Z,1004.66
2018-04-11T10:46:58.881Z,1004.59
2018-04-11T10:47:59.201Z,1004.61
2018-04-11T10:48:58.798Z,1004.58
2018-04-11T10:49:58.840Z,1004.57
2018-04-11T10:50:58.872Z,1004.59
2018-04-11T10:51:58.784Z,1004.63
2018-04-11T10:52:58.875Z,1004.60
2018-04-11T10:53:59.073Z,1004.63
2018-04-11T10:54:58.796Z,1004.60
2018-04-11T10:55:59.104Z,1004.26
2018-04-11T10:56:58.769Z,1004.19
2018-04-11T10:57:58.856Z,1004.11
2018-04-11T10:58:58.819Z,1004.25
2018-04-11T10:59:59.068Z,1004.37
2018-04-11T11:01:58.793Z,1004.26
2018-04-11T11:02:58.818Z,1004.39
2018-04-11T11:03:58.776Z,1004.53
2018-04-11T11:04:58.857Z,1004.58
2018-04-11T11:05:59.126Z,1004.54
2018-04-11T11:06:58.845Z,1004.57
2018-04-11T11:07:58.718Z,1004.54
2018-04-11T11:08:58.712Z,1004.48
2018-04-11T11:09:58.755Z,1004.48
2018-04-11T11:10:58.709Z,1004.50
2018-04-11T11:11:58.993Z,1004.50
2018-04-11T11:12:58.696Z,1004.45
2018-04-11T11:15:58.889Z,1004.50
2018-04-11T11:16:58.675Z,1004.51
2018-04-11T11:17:59.978Z,1004.49
2018-04-11T11:18:58.750Z,1004.50
2018-04-11T11:19:58.667Z,1004.52
2018-04-11T11:20:58.745Z,1004.51
2018-04-11T11:21:58.763Z,1004.52
2018-04-11T11:22:58.701Z,1004.50
2018-04-11T11:23:59.085Z,1004.49
2018-04-11T11:24:58.750Z,1004.44
2018-04-11T11:25:58.817Z,1004.46
2018-04-11T11:26:58.692Z,1004.47
2018-04-11T11:27:58.640Z,1004.47
2018-04-11T11:28:58.753Z,1004.46
2018-04-11T11:29:59.001Z,1004.48
2018-04-11T11:30:58.644Z,1004.46
2018-04-11T11:31:58.634Z,1004.47
2018-04-11T11:32:58.701Z,1004.26
2018-04-11T11:33:58.953Z,1004.32
2018-04-11T11:34:58.780Z,1004.49
2018-04-11T11:35:59.019Z,1004.45
2018-04-11T11:36:58.628Z,1004.52
2018-04-11T11:37:58.708Z,1004.41
2018-04-11T11:39:58.862Z,1004.40
2018-04-11T11:40:58.630Z,1004.42
2018-04-11T11:41:58.933Z,1004.45
2018-04-11T11:42:58.616Z,1004.49
2018-04-11T11:43:58.643Z,1004.48
2018-04-11T11:44:58.614Z,1004.46
2018-04-11T11:45:58.982Z,1004.45
2018-04-11T11:47:58.906Z,1004.40
2018-04-11T11:48:58.603Z,1004.40
2018-04-11T11:49:58.744Z,1004.37
2018-04-11T11:50:58.632Z,1004.35
2018-04-11T11:51:58.712Z,1004.42
2018-04-11T11:52:58.589Z,1004.40
2018-04-11T11:53:58.885Z,1004.39
2018-04-11T11:54:58.578Z,1004.42
2018-04-11T11:55:58.883Z,1004.33
2018-04-11T11:59:59.782Z,1004.32
2018-04-11T12:01:59.665Z,1004.35
2018-04-11T12:03:58.868Z,1004.34
2018-04-11T12:04:58.709Z,1004.28
2018-04-11T12:07:00.129Z,1004.32
2018-04-11T12:07:58.636Z,1004.33
2018-04-11T12:08:58.584Z,1004.29
2018-04-11T12:09:58.613Z,1004.30
2018-04-11T12:10:58.634Z,1004.29
2018-04-11T12:11:59.871Z,1004.30
2018-04-11T12:12:58.606Z,1004.34
2018-04-11T12:13:58.580Z,1004.36
2018-04-11T12:14:58.551Z,1004.37
2018-04-11T12:15:58.555Z,1004.31
2018-04-11T12:16:59.848Z,1004.32
2018-04-11T12:18:00.069Z,1004.33
2018-04-11T12:18:58.665Z,1004.30
2018-04-11T12:19:58.550Z,1004.35
2018-04-11T12:20:58.722Z,1004.27
2018-04-11T12:21:58.549Z,1004.27
2018-04-11T12:22:58.638Z,1004.22
2018-04-11T12:23:58.852Z,1004.27
2018-04-11T12:24:58.549Z,1004.28
2018-04-11T12:25:58.561Z,1004.23
2018-04-11T12:26:58.771Z,1004.21
2018-04-11T12:27:58.563Z,1004.22
2018-04-11T12:28:58.699Z,1004.26
2018-04-11T12:29:58.847Z,1004.25
2018-04-11T12:30:58.538Z,1004.25
2018-04-11T12:31:58.551Z,1004.25
2018-04-11T12:32:58.551Z,1004.24
2018-04-11T12:33:58.634Z,1004.19
2018-04-11T12:34:58.553Z,1004.19
2018-04-11T12:35:59.375Z,1004.16
2018-04-11T12:36:58.547Z,1004.19
2018-04-11T12:37:58.533Z,1004.14
2018-04-11T12:38:58.538Z,1004.14
2018-04-11T12:39:58.582Z,1004.17
2018-04-11T12:40:58.528Z,1004.09
2018-04-11T12:41:58.558Z,1004.11
2018-04-11T12:42:58.963Z,1004.09
2018-04-11T12:43:58.602Z,1004.08
2018-04-11T12:44:58.524Z,1004.08
2018-04-11T12:45:58.539Z,1004.11
2018-04-11T12:46:58.526Z,1004.06
2018-04-11T12:47:58.520Z,1004.03
2018-04-11T12:49:58.621Z,1004.01
2018-04-11T12:50:58.581Z,1004.02
2018-04-11T12:51:58.646Z,1003.95
2018-04-11T12:54:58.882Z,1003.99
2018-04-11T12:55:58.578Z,1004.03
2018-04-11T12:56:58.525Z,1004.06
2018-04-11T12:57:58.524Z,1004.06
2018-04-11T12:58:58.526Z,1004.10
2018-04-11T12:59:58.522Z,1004.20
2018-04-11T13:00:58.830Z,1004.11
2018-04-11T13:01:58.874Z,1003.77
2018-04-11T13:02:58.539Z,1004.04
2018-04-11T13:03:58.523Z,1004.11
2018-04-11T13:04:58.540Z,1003.99
2018-04-11T13:05:58.525Z,1003.57
2018-04-11T13:07:58.875Z,1003.75
2018-04-11T13:08:58.532Z,1003.94